createdAt,value
2023-08-05T00:02:26.122Z,11.27
2023-08-05T00:04:55.958Z,7.25
2023-08-05T00:07:25.830Z,11.20
2023-08-05T00:09:55.639Z,11.80
2023-08-05T00:12:25.401Z,12.13
2023-08-05T00:14:57.761Z,9.45
2023-08-05T00:17:28.026Z,8.52
2023-08-05T00:19:57.833Z,6.65
2023-08-05T00:22:27.640Z,7.38
2023-08-05T00:24:57.412Z,9.98
2023-08-05T00:27:27.278Z,12.05
2023-08-05T00:29:59.760Z,7.15
2023-08-05T00:32:31.427Z,10.43
2023-08-05T00:35:01.217Z,8.60
2023-08-05T00:37:31.013Z,9.10
2023-08-05T00:40:00.779Z,8.15
2023-08-05T00:42:32.036Z,11.70
2023-08-05T00:45:05.311Z,8.80
2023-08-05T00:47:35.264Z,10.95
2023-08-05T00:50:05.261Z,7.07
2023-08-05T00:52:35.112Z,10.60
2023-08-05T00:55:05.116Z,15.20
2023-08-05T00:57:34.903Z,10.05
2023-08-05T01:00:08.519Z,9.38
2023-08-05T01:02:39.044Z,14.27
2023-08-05T01:05:09.022Z,10.63
2023-08-05T01:07:40.930Z,9.60
2023-08-05T01:10:11.420Z,13.52
2023-08-05T01:12:41.196Z,15.82
2023-08-05T01:15:14.233Z,11.93
2023-08-05T01:17:44.298Z,10.88
2023-08-05T01:20:16.021Z,11.30
2023-08-05T01:22:49.033Z,12.80
2023-08-05T01:25:28.752Z,17.83
2023-08-05T01:27:59.839Z,14.57
2023-08-05T01:30:30.592Z,17.23
2023-08-05T01:33:03.549Z,14.70
2023-08-05T01:35:33.631Z,19.63
2023-08-05T01:38:03.511Z,17.73
2023-08-05T01:40:36.340Z,16.00
2023-08-05T01:45:38.843Z,20.50
2023-08-05T01:48:08.889Z,18.42
2023-08-05T01:50:39.428Z,21.70
2023-08-05T01:53:09.236Z,13.63
2023-08-05T01:55:41.739Z,13.55
2023-08-05T01:58:11.788Z,9.98
2023-08-05T02:00:41.628Z,12.68
2023-08-05T02:03:11.587Z,14.80
2023-08-05T02:05:41.416Z,17.80
2023-08-05T02:08:12.511Z,16.55
2023-08-05T02:10:45.206Z,12.63
2023-08-05T02:13:15.016Z,15.00
2023-08-05T02:15:44.780Z,16.55
2023-08-05T02:18:14.580Z,15.68
2023-08-05T02:20:44.372Z,15.23
2023-08-05T02:23:14.178Z,15.15
2023-08-05T02:25:46.541Z,17.83
2023-08-05T02:28:16.657Z,16.85
2023-08-05T02:30:46.455Z,13.25
2023-08-05T02:33:16.253Z,13.85
2023-08-05T02:35:47.362Z,13.48
2023-08-05T02:38:17.295Z,16.45
2023-08-05T02:40:49.670Z,14.98
2023-08-05T02:43:19.517Z,19.13
2023-08-05T02:45:56.313Z,18.88
2023-08-05T02:48:27.016Z,13.75
2023-08-05T02:50:57.994Z,17.13
2023-08-05T02:53:29.158Z,18.05
2023-08-05T02:56:01.677Z,12.25
2023-08-05T02:58:32.031Z,17.30
2023-08-05T03:01:09.945Z,12.82
2023-08-05T03:03:40.049Z,20.05
2023-08-05T03:06:09.903Z,13.95
2023-08-05T03:08:39.866Z,17.48
2023-08-05T03:11:12.316Z,17.73
2023-08-05T03:13:42.207Z,17.48
2023-08-05T03:16:13.556Z,15.77
2023-08-05T03:18:51.281Z,23.80
2023-08-05T03:21:21.089Z,19.70
2023-08-05T03:23:50.947Z,16.33
2023-08-05T03:26:23.341Z,17.13
2023-08-05T03:28:53.140Z,24.60
2023-08-05T03:31:23.219Z,15.23
2023-08-05T03:33:54.017Z,22.67
2023-08-05T03:36:23.824Z,20.05
2023-08-05T03:38:53.639Z,23.98
2023-08-05T03:41:27.532Z,23.55
2023-08-05T03:43:57.582Z,22.20
2023-08-05T03:46:27.497Z,26.00
2023-08-05T03:48:57.398Z,27.48
2023-08-05T03:51:28.333Z,29.42
2023-08-05T03:53:58.831Z,23.95
2023-08-05T03:56:31.626Z,24.20
2023-08-05T03:59:03.046Z,19.35
2023-08-05T04:01:34.321Z,20.63
2023-08-05T04:04:04.527Z,21.73
2023-08-05T04:06:34.839Z,20.40
2023-08-05T04:09:07.335Z,23.42
2023-08-05T04:11:39.811Z,21.00
2023-08-05T04:14:11.987Z,27.73
2023-08-05T04:16:42.318Z,19.63
2023-08-05T04:19:12.160Z,23.15
2023-08-05T04:21:48.060Z,30.17
2023-08-05T04:24:20.770Z,27.80
2023-08-05T04:26:53.537Z,31.85
2023-08-05T04:29:24.258Z,27.77
2023-08-05T04:31:54.836Z,36.58
2023-08-05T04:34:24.875Z,31.88
2023-08-05T04:36:55.637Z,31.42
2023-08-05T04:39:25.626Z,28.63
2023-08-05T04:41:58.559Z,37.17
2023-08-05T04:44:28.436Z,35.30
2023-08-05T04:46:58.216Z,37.88
2023-08-05T04:49:28.023Z,33.83
2023-08-05T04:51:57.856Z,36.42
2023-08-05T04:54:27.629Z,35.80
2023-08-05T04:57:00.028Z,38.45
2023-08-05T04:59:29.790Z,38.67
2023-08-05T05:01:59.723Z,36.65
2023-08-05T05:04:29.554Z,46.83
2023-08-05T05:06:59.373Z,50.95
2023-08-05T05:09:29.181Z,51.40
2023-08-05T05:12:01.898Z,59.22
2023-08-05T05:14:35.468Z,50.58
2023-08-05T05:17:05.245Z,57.38
2023-08-05T05:19:35.047Z,46.08
2023-08-05T05:22:04.794Z,41.65
2023-08-05T05:24:34.654Z,41.60
2023-08-05T05:27:07.746Z,39.63
2023-08-05T05:29:37.537Z,36.03
2023-08-05T05:32:08.198Z,29.10
2023-08-05T05:34:38.141Z,24.70
2023-08-05T05:37:08.370Z,23.63
2023-08-05T05:39:38.145Z,21.30
2023-08-05T05:42:10.794Z,21.13
2023-08-05T05:44:40.761Z,21.15
2023-08-05T05:47:11.843Z,24.27
2023-08-05T05:49:41.703Z,22.40
2023-08-05T05:52:14.497Z,22.85
2023-08-05T05:54:44.298Z,22.80
2023-08-05T05:57:16.689Z,24.55
2023-08-05T05:59:46.761Z,20.98
2023-08-05T06:02:16.603Z,21.65
2023-08-05T06:04:48.910Z,20.73
2023-08-05T06:07:19.173Z,23.83
2023-08-05T06:09:49.011Z,21.35
2023-08-05T06:12:23.969Z,28.35
2023-08-05T06:14:53.849Z,19.85
2023-08-05T06:17:23.647Z,21.98
2023-08-05T06:19:53.496Z,22.67
2023-08-05T06:22:23.262Z,18.33
2023-08-05T06:24:53.188Z,20.73
2023-08-05T06:27:25.618Z,18.88
2023-08-05T06:29:55.702Z,21.15
2023-08-05T06:32:25.812Z,21.13
2023-08-05T06:34:55.900Z,21.90
2023-08-05T06:37:25.875Z,21.52
2023-08-05T06:39:55.715Z,24.05
2023-08-05T06:42:28.112Z,32.65
2023-08-05T06:44:58.211Z,23.52
2023-08-05T06:47:32.606Z,24.98
2023-08-05T06:50:03.393Z,19.55
2023-08-05T06:52:33.181Z,18.13
2023-08-05T06:55:05.292Z,16.67
2023-08-05T06:57:37.827Z,20.33
2023-08-05T07:00:09.558Z,17.27
2023-08-05T07:02:39.405Z,20.38
2023-08-05T07:05:09.432Z,19.38
2023-08-05T07:07:39.192Z,21.13
2023-08-05T07:10:12.977Z,23.20
2023-08-05T07:12:45.343Z,21.05
2023-08-05T07:15:15.113Z,18.92
2023-08-05T07:17:45.066Z,21.10
2023-08-05T07:20:15.347Z,20.60
2023-08-05T07:22:45.092Z,19.55
2023-08-05T07:25:14.918Z,22.55
2023-08-05T07:27:47.270Z,18.73
2023-08-05T07:30:17.067Z,30.88
2023-08-05T07:32:46.855Z,22.10
2023-08-05T07:35:16.985Z,20.65
2023-08-05T07:37:48.389Z,18.50
2023-08-05T07:40:18.227Z,19.67
2023-08-05T07:42:51.141Z,17.30
2023-08-05T07:45:22.695Z,16.17
2023-08-05T07:47:53.297Z,15.48
2023-08-05T07:50:25.753Z,14.43
2023-08-05T07:52:55.741Z,12.48
2023-08-05T07:55:31.088Z,15.10
2023-08-05T07:58:05.781Z,11.75
2023-08-05T08:00:35.679Z,12.65
2023-08-05T08:03:05.844Z,11.65
2023-08-05T08:05:35.620Z,12.38
2023-08-05T08:08:05.522Z,10.43
2023-08-05T08:10:35.288Z,8.23
2023-08-05T08:13:07.672Z,7.90
2023-08-05T08:15:37.499Z,7.15
2023-08-05T08:18:07.397Z,6.75
2023-08-05T08:20:37.197Z,8.43
2023-08-05T08:23:07.211Z,7.20
2023-08-05T08:25:39.674Z,6.95
2023-08-05T08:28:12.044Z,11.60
2023-08-05T08:30:41.861Z,9.25
2023-08-05T08:33:11.740Z,5.85
2023-08-05T08:35:41.598Z,7.68
2023-08-05T08:38:11.390Z,6.72
2023-08-05T08:40:41.166Z,8.98
2023-08-05T08:43:13.869Z,8.57
2023-08-05T08:45:44.067Z,7.20
2023-08-05T08:48:14.469Z,6.47
2023-08-05T08:50:44.669Z,6.63
2023-08-05T08:53:14.843Z,6.07
2023-08-05T08:55:45.415Z,5.78
2023-08-05T08:58:17.858Z,8.52
2023-08-05T09:00:47.796Z,5.30
2023-08-05T09:03:17.869Z,7.32
2023-08-05T09:05:49.592Z,6.20
2023-08-05T09:08:19.534Z,4.35
2023-08-05T09:10:49.346Z,4.30
2023-08-05T09:13:21.888Z,3.92
2023-08-05T09:15:51.712Z,6.60
2023-08-05T09:18:21.523Z,4.70
2023-08-05T09:20:53.353Z,4.13
2023-08-05T09:23:23.137Z,3.53
2023-08-05T09:25:53.263Z,3.33
2023-08-05T09:28:35.457Z,3.60
2023-08-05T09:31:18.974Z,4.17
2023-08-05T09:33:48.765Z,3.58
2023-08-05T09:36:23.330Z,6.15
2023-08-05T09:39:07.427Z,3.20
2023-08-05T09:41:37.658Z,3.22
2023-08-05T09:44:13.182Z,3.63
2023-08-05T09:46:45.337Z,5.00
2023-08-05T09:49:18.551Z,4.10
2023-08-05T09:51:52.119Z,3.88
2023-08-05T09:54:32.145Z,5.05
2023-08-05T09:57:04.697Z,5.47
2023-08-05T09:59:37.100Z,5.35
2023-08-05T10:02:07.285Z,3.88
2023-08-05T10:04:37.142Z,4.45
2023-08-05T10:07:07.430Z,5.50
2023-08-05T10:09:37.178Z,5.25
2023-08-05T10:12:08.665Z,4.50
2023-08-05T10:14:40.992Z,4.28
2023-08-05T10:17:11.009Z,4.57
2023-08-05T10:19:40.773Z,5.13
2023-08-05T10:22:12.168Z,7.82
2023-08-05T10:24:55.397Z,6.07
2023-08-05T10:27:42.327Z,4.32
2023-08-05T10:30:16.616Z,4.35
2023-08-05T10:32:53.840Z,5.57
2023-08-05T10:35:33.469Z,4.95
2023-08-05T10:38:09.581Z,3.88
2023-08-05T10:40:49.719Z,3.72
2023-08-05T10:43:46.578Z,5.20
2023-08-05T10:46:19.020Z,4.43
2023-08-05T10:48:52.093Z,3.87
2023-08-05T10:51:23.591Z,6.35
2023-08-05T10:54:02.492Z,3.55
2023-08-05T10:56:37.478Z,3.75
2023-08-05T10:59:08.057Z,4.10
2023-08-05T11:02:00.828Z,3.30
2023-08-05T11:04:31.484Z,3.47
2023-08-05T11:07:03.539Z,7.03
2023-08-05T11:09:36.574Z,3.30
2023-08-05T11:12:07.037Z,3.53
2023-08-05T11:14:38.235Z,4.30
2023-08-05T11:17:11.713Z,3.05
2023-08-05T11:22:28.479Z,3.10
2023-08-05T11:25:00.091Z,3.03
2023-08-05T11:27:33.930Z,3.03
2023-08-05T11:30:14.433Z,3.28
2023-08-05T11:33:04.756Z,3.08
2023-08-05T11:35:34.657Z,2.83
2023-08-05T11:38:04.688Z,3.53
2023-08-05T11:40:35.002Z,2.70
2023-08-05T11:43:09.239Z,2.85
2023-08-05T11:45:41.482Z,2.40
2023-08-05T11:48:20.435Z,2.45
2023-08-05T11:50:50.348Z,2.47
2023-08-05T11:53:20.761Z,2.40
2023-08-05T11:55:50.578Z,2.80
2023-08-05T11:58:21.733Z,2.40
2023-08-05T12:00:53.155Z,2.80
2023-08-05T12:03:25.521Z,3.08
2023-08-05T12:06:03.975Z,6.32
2023-08-05T12:08:44.031Z,4.10
2023-08-05T12:11:14.049Z,3.55
2023-08-05T12:13:45.666Z,3.17
2023-08-05T12:16:19.883Z,3.28
2023-08-05T12:18:52.497Z,3.47
2023-08-05T12:21:22.605Z,4.30
2023-08-05T12:23:55.327Z,3.60
2023-08-05T12:26:29.781Z,4.55
2023-08-05T12:28:59.519Z,5.65
2023-08-05T12:31:31.312Z,5.30
2023-08-05T12:34:03.653Z,5.00
2023-08-05T12:36:33.783Z,4.57
2023-08-05T12:39:05.008Z,4.68
2023-08-05T12:41:36.338Z,6.23
2023-08-05T12:44:06.069Z,4.88
2023-08-05T12:46:35.838Z,6.03
2023-08-05T12:49:08.184Z,4.70
2023-08-05T12:51:37.916Z,5.07
2023-08-05T12:54:07.641Z,5.28
2023-08-05T12:56:37.405Z,4.60
2023-08-05T12:59:07.291Z,4.38
2023-08-05T13:01:38.036Z,6.25
2023-08-05T13:04:10.540Z,4.30
2023-08-05T13:06:40.312Z,5.40
2023-08-05T13:09:10.109Z,10.07
2023-08-05T13:11:39.849Z,5.95
2023-08-05T13:14:09.664Z,4.80
2023-08-05T13:16:39.455Z,6.60
2023-08-05T13:19:12.003Z,4.85
2023-08-05T13:21:41.734Z,3.60
2023-08-05T13:24:11.583Z,4.00
2023-08-05T13:26:41.460Z,3.92
2023-08-05T13:29:11.252Z,6.85
2023-08-05T13:31:41.001Z,3.97
2023-08-05T13:34:13.349Z,4.20
2023-08-05T13:36:43.192Z,6.28
2023-08-05T13:39:12.948Z,5.43
2023-08-05T13:41:42.710Z,4.72
2023-08-05T13:44:12.508Z,3.60
2023-08-05T13:46:42.390Z,3.70
2023-08-05T13:49:14.778Z,4.35
2023-08-05T13:51:45.514Z,5.50
2023-08-05T13:54:16.754Z,6.10
2023-08-05T13:56:46.562Z,9.57
2023-08-05T13:59:16.526Z,9.23
2023-08-05T14:01:47.921Z,4.93
2023-08-05T14:04:20.327Z,4.80
2023-08-05T14:06:50.061Z,5.93
2023-08-05T14:09:20.003Z,4.40
2023-08-05T14:11:49.997Z,4.82
2023-08-05T14:14:22.920Z,6.65
2023-08-05T14:19:26.130Z,7.55
2023-08-05T14:21:55.917Z,6.88
2023-08-05T14:24:25.749Z,6.05
2023-08-05T14:26:55.487Z,4.97
2023-08-05T14:29:25.209Z,4.90
2023-08-05T14:31:55.313Z,7.18
2023-08-05T14:34:27.937Z,5.25
2023-08-05T14:36:57.743Z,7.28
2023-08-05T14:39:27.814Z,7.80
2023-08-05T14:41:57.542Z,7.38
2023-08-05T14:44:27.293Z,5.40
2023-08-05T14:46:57.043Z,5.10
2023-08-05T14:49:29.446Z,5.75
2023-08-05T14:51:59.214Z,5.50
2023-08-05T14:54:29.201Z,6.38
2023-08-05T14:56:58.979Z,6.72
2023-08-05T14:59:28.748Z,5.82
2023-08-05T15:01:58.805Z,8.20
2023-08-05T15:04:31.379Z,6.45
2023-08-05T15:07:01.112Z,5.22
2023-08-05T15:09:30.873Z,6.55
2023-08-05T15:12:00.655Z,5.53
2023-08-05T15:14:30.421Z,5.95
2023-08-05T15:17:00.194Z,7.25
2023-08-05T15:19:32.590Z,5.10
2023-08-05T15:22:02.354Z,4.95
2023-08-05T15:24:32.621Z,5.55
2023-08-05T15:27:02.470Z,4.88
2023-08-05T15:29:32.186Z,6.10
2023-08-05T15:32:02.068Z,6.80
2023-08-05T15:34:36.496Z,5.57
2023-08-05T15:37:06.651Z,4.30
2023-08-05T15:39:36.523Z,5.25
2023-08-05T15:42:06.805Z,4.82
2023-08-05T15:44:38.006Z,7.40
2023-08-05T15:47:08.559Z,4.90
2023-08-05T15:49:40.901Z,4.65
2023-08-05T15:52:11.019Z,5.80
2023-08-05T15:54:42.384Z,7.57
2023-08-05T15:57:13.409Z,5.25
2023-08-05T15:59:43.149Z,7.20
2023-08-05T16:02:12.971Z,5.95
2023-08-05T16:04:45.381Z,5.47
2023-08-05T16:07:15.270Z,6.00
2023-08-05T16:09:45.026Z,7.25
2023-08-05T16:12:16.112Z,5.57
2023-08-05T16:14:45.874Z,4.50
2023-08-05T16:17:15.611Z,5.38
2023-08-05T16:19:48.101Z,5.10
2023-08-05T16:22:17.980Z,5.18
2023-08-05T16:24:47.694Z,4.38
2023-08-05T16:27:17.513Z,4.88
2023-08-05T16:29:47.304Z,4.78
2023-08-05T16:32:17.049Z,6.40
2023-08-05T16:34:49.425Z,5.25
2023-08-05T16:37:20.870Z,7.90
2023-08-05T16:39:50.647Z,9.25
2023-08-05T16:42:20.503Z,5.07
2023-08-05T16:44:50.221Z,4.93
2023-08-05T16:47:20.021Z,5.28
2023-08-05T16:49:52.487Z,5.28
2023-08-05T16:52:22.280Z,6.22
2023-08-05T16:54:53.927Z,5.03
2023-08-05T16:57:24.250Z,5.60
2023-08-05T16:59:54.268Z,6.70
2023-08-05T17:02:23.998Z,6.82
2023-08-05T17:04:57.139Z,5.15
2023-08-05T17:07:26.952Z,5.35
2023-08-05T17:09:57.258Z,6.13
2023-08-05T17:12:27.021Z,5.88
2023-08-05T17:14:56.793Z,5.82
2023-08-05T17:17:26.788Z,5.28
2023-08-05T17:19:59.340Z,6.28
2023-08-05T17:22:29.200Z,5.05
2023-08-05T17:24:59.058Z,6.47
2023-08-05T17:27:29.019Z,5.65
2023-08-05T17:29:59.110Z,5.85
2023-08-05T17:32:28.946Z,4.93
2023-08-05T17:35:01.293Z,4.78
2023-08-05T17:37:31.502Z,5.93
2023-08-05T17:40:02.222Z,5.05
2023-08-05T17:42:32.051Z,4.82
2023-08-05T17:45:01.799Z,4.45
2023-08-05T17:47:31.648Z,4.50
2023-08-05T17:50:04.029Z,7.07
2023-08-05T17:52:33.861Z,5.88
2023-08-05T17:55:03.664Z,6.97
2023-08-05T17:57:33.433Z,8.40
2023-08-05T18:00:03.231Z,5.88
2023-08-05T18:02:35.299Z,14.10
2023-08-05T18:05:08.489Z,6.75
2023-08-05T18:07:38.346Z,5.97
2023-08-05T18:10:09.472Z,7.30
2023-08-05T18:12:39.551Z,7.35
2023-08-05T18:15:10.468Z,9.75
2023-08-05T18:17:40.316Z,7.13
2023-08-05T18:20:13.574Z,6.47
2023-08-05T18:22:43.614Z,4.38
2023-08-05T18:25:13.403Z,7.50
2023-08-05T18:27:43.269Z,5.30
2023-08-05T18:30:15.643Z,7.78
2023-08-05T18:32:45.443Z,6.63
2023-08-05T18:35:18.088Z,6.20
2023-08-05T18:37:48.005Z,5.15
2023-08-05T18:40:17.910Z,9.05
2023-08-05T18:42:47.994Z,7.20
2023-08-05T18:45:18.026Z,8.10
2023-08-05T18:47:47.855Z,6.15
2023-08-05T18:50:20.591Z,6.20
2023-08-05T18:52:50.383Z,5.95
2023-08-05T18:55:20.204Z,8.30
2023-08-05T18:57:50.050Z,5.93
2023-08-05T19:00:20.005Z,6.88
2023-08-05T19:02:52.141Z,6.30
2023-08-05T19:05:24.876Z,6.75
2023-08-05T19:07:54.686Z,9.00
2023-08-05T19:10:24.625Z,6.82
2023-08-05T19:12:54.441Z,6.53
2023-08-05T19:15:24.211Z,8.23
2023-08-05T19:17:54.363Z,6.93
2023-08-05T19:20:26.871Z,7.43
2023-08-05T19:22:56.646Z,8.18
2023-08-05T19:25:26.521Z,6.20
2023-08-05T19:27:56.709Z,6.40
2023-08-05T19:30:26.835Z,7.00
2023-08-05T19:32:57.220Z,7.25
2023-08-05T19:35:31.599Z,6.38
2023-08-05T19:38:01.701Z,6.63
2023-08-05T19:40:31.479Z,7.35
2023-08-05T19:43:01.244Z,9.15
2023-08-05T19:45:31.032Z,7.00
2023-08-05T19:48:00.855Z,6.63
2023-08-05T19:50:33.320Z,9.73
2023-08-05T19:53:03.071Z,8.07
2023-08-05T19:55:34.710Z,6.15
2023-08-05T19:58:04.457Z,8.18
2023-08-05T20:00:34.276Z,7.72
2023-08-05T20:03:04.279Z,5.88
2023-08-05T20:05:38.209Z,6.50
2023-08-05T20:08:08.302Z,6.60
2023-08-05T20:10:38.090Z,5.15
2023-08-05T20:13:07.840Z,5.25
2023-08-05T20:15:37.861Z,4.80
2023-08-05T20:18:07.762Z,4.80
2023-08-05T20:20:40.188Z,5.35
2023-08-05T20:23:10.980Z,5.05
2023-08-05T20:25:40.814Z,5.63
2023-08-05T20:28:10.634Z,6.20
2023-08-05T20:30:40.471Z,4.55
2023-08-05T20:33:11.578Z,4.72
2023-08-05T20:35:44.217Z,7.18
2023-08-05T20:38:14.026Z,4.55
2023-08-05T20:40:43.787Z,7.03
2023-08-05T20:43:13.626Z,6.25
2023-08-05T20:45:43.485Z,4.93
2023-08-05T20:48:13.457Z,5.68
2023-08-05T20:50:45.896Z,6.43
2023-08-05T20:53:15.698Z,7.38
2023-08-05T20:55:45.635Z,6.05
2023-08-05T20:58:15.494Z,6.07
2023-08-05T21:00:45.226Z,4.55
2023-08-05T21:03:15.090Z,5.07
2023-08-05T21:05:47.481Z,4.63
2023-08-05T21:08:17.601Z,7.53
2023-08-05T21:10:48.263Z,7.50
2023-08-05T21:13:18.032Z,4.68
2023-08-05T21:15:47.832Z,4.80
2023-08-05T21:18:17.622Z,5.68
2023-08-05T21:20:49.983Z,7.07
2023-08-05T21:23:19.899Z,7.30
2023-08-05T21:25:49.838Z,7.05
2023-08-05T21:28:19.641Z,6.53
2023-08-05T21:30:52.019Z,5.75
2023-08-05T21:33:21.925Z,5.47
2023-08-05T21:35:54.379Z,4.85
2023-08-05T21:38:25.439Z,5.22
2023-08-05T21:40:55.344Z,8.10
2023-08-05T21:43:25.403Z,5.80
2023-08-05T21:45:58.033Z,9.07
2023-08-05T21:48:29.626Z,4.75
2023-08-05T21:51:03.033Z,7.78
2023-08-05T21:53:32.972Z,4.88
2023-08-05T21:56:05.306Z,5.82
2023-08-05T21:58:35.116Z,5.22
2023-08-05T22:01:05.387Z,8.88
2023-08-05T22:03:35.307Z,6.22
2023-08-05T22:06:12.584Z,6.88
2023-08-05T22:08:42.386Z,5.65
2023-08-05T22:11:12.491Z,4.65
2023-08-05T22:13:42.718Z,4.50
2023-08-05T22:16:12.502Z,5.60
2023-08-05T22:18:42.297Z,7.60
2023-08-05T22:21:14.921Z,8.68
2023-08-05T22:23:44.862Z,5.70
2023-08-05T22:26:14.839Z,5.07
2023-08-05T22:28:44.855Z,5.93
2023-08-05T22:31:14.707Z,8.32
2023-08-05T22:33:44.474Z,5.18
2023-08-05T22:36:18.098Z,6.07
2023-08-05T22:38:48.397Z,6.60
2023-08-05T22:41:18.346Z,5.00
2023-08-05T22:43:48.095Z,4.93
2023-08-05T22:46:18.127Z,6.05
2023-08-05T22:48:47.971Z,6.15
2023-08-05T22:51:20.297Z,7.00
2023-08-05T22:53:50.708Z,5.10
2023-08-05T22:56:21.160Z,4.65
2023-08-05T22:58:54.825Z,6.03
2023-08-05T23:01:24.747Z,4.35
2023-08-05T23:03:54.626Z,5.38
2023-08-05T23:06:27.309Z,4.78
2023-08-05T23:08:57.169Z,5.63
2023-08-05T23:11:26.946Z,23.95
2023-08-05T23:13:56.703Z,7.43
2023-08-05T23:16:26.578Z,6.15
2023-08-05T23:18:56.360Z,4.05
2023-08-05T23:21:30.754Z,4.03
2023-08-05T23:24:01.225Z,3.80
2023-08-05T23:26:31.201Z,4.03
2023-08-05T23:29:01.525Z,4.00
2023-08-05T23:31:31.370Z,5.82
2023-08-05T23:34:01.233Z,5.07
2023-08-05T23:36:33.857Z,5.32
2023-08-05T23:39:03.657Z,4.78
2023-08-05T23:41:33.426Z,4.47
2023-08-05T23:44:03.277Z,5.63
2023-08-05T23:46:33.089Z,4.60
2023-08-05T23:49:03.181Z,4.00
2023-08-05T23:51:35.511Z,3.95
2023-08-05T23:54:05.323Z,5.18
2023-08-05T23:56:35.065Z,4.78
2023-08-05T23:59:05.072Z,3.88
